createdAt,value
2022-12-04T00:01:26.576Z,-0.50
2022-12-04T00:04:01.514Z,-0.50
2022-12-04T00:06:36.354Z,-0.50
2022-12-04T00:09:09.840Z,-0.50
2022-12-04T00:11:43.459Z,-0.50
2022-12-04T00:14:16.933Z,-0.50
2022-12-04T00:16:50.552Z,-0.40
2022-12-04T00:19:24.291Z,-0.40
2022-12-04T00:21:59.148Z,-0.40
2022-12-04T00:24:32.633Z,-0.40
2022-12-04T00:27:06.396Z,-0.40
2022-12-04T00:29:39.667Z,-0.40
2022-12-04T00:32:13.144Z,-0.30
2022-12-04T00:34:46.434Z,-0.30
2022-12-04T00:37:21.413Z,-0.30
2022-12-04T00:39:54.967Z,-0.30
2022-12-04T00:42:28.702Z,-0.30
2022-12-04T00:45:01.986Z,-0.30
2022-12-04T00:47:35.423Z,-0.30
2022-12-04T00:50:10.248Z,-0.30
2022-12-04T00:52:44.900Z,-0.30
2022-12-04T00:55:18.580Z,-0.20
2022-12-04T00:57:55.761Z,-0.30
2022-12-04T01:00:32.318Z,-0.30
2022-12-04T01:03:08.085Z,-0.20
2022-12-04T01:05:42.198Z,-0.20
2022-12-04T01:08:17.130Z,-0.20
2022-12-04T01:10:50.456Z,-0.20
2022-12-04T01:13:24.279Z,-0.20
2022-12-04T01:15:57.812Z,-0.20
2022-12-04T01:18:31.113Z,-0.20
2022-12-04T01:21:04.707Z,-0.20
2022-12-04T01:23:39.551Z,-0.20
2022-12-04T01:26:13.495Z,-0.20
2022-12-04T01:28:47.013Z,-0.20
2022-12-04T01:31:22.300Z,-0.20
2022-12-04T01:33:55.636Z,-0.20
2022-12-04T01:36:30.525Z,-0.20
2022-12-04T01:39:05.264Z,-0.20
2022-12-04T01:41:38.698Z,-0.10
2022-12-04T01:44:15.657Z,-0.20
2022-12-04T01:46:52.664Z,-0.10
2022-12-04T01:49:30.857Z,-0.10
2022-12-04T01:52:08.502Z,-0.10
2022-12-04T01:54:47.068Z,-0.10
2022-12-04T01:57:25.047Z,-0.10
2022-12-04T02:00:02.384Z,-0.10
2022-12-04T02:02:41.599Z,-0.10
2022-12-04T02:05:17.185Z,0.00
2022-12-04T02:07:54.040Z,0.00
2022-12-04T02:10:37.033Z,0.00
2022-12-04T02:13:20.575Z,0.00
2022-12-04T02:16:01.969Z,0.00
2022-12-04T02:18:42.412Z,0.00
2022-12-04T02:21:21.273Z,0.00
2022-12-04T02:24:21.482Z,0.00
2022-12-04T02:26:59.424Z,0.00
2022-12-04T02:29:40.607Z,0.00
2022-12-04T02:32:20.241Z,0.00
2022-12-04T02:35:00.501Z,0.00
2022-12-04T02:37:37.350Z,0.00
2022-12-04T02:40:18.605Z,0.00
2022-12-04T02:42:59.446Z,0.10
2022-12-04T02:45:39.501Z,0.10
2022-12-04T02:48:16.651Z,0.10
2022-12-04T02:50:55.208Z,0.10
2022-12-04T02:53:32.962Z,0.10
2022-12-04T02:56:10.713Z,0.10
2022-12-04T02:58:48.471Z,0.10
2022-12-04T03:01:28.075Z,0.10
2022-12-04T03:04:06.700Z,0.10
2022-12-04T03:06:43.149Z,0.10
2022-12-04T03:09:22.493Z,0.10
2022-12-04T03:11:59.096Z,0.10
2022-12-04T03:14:35.935Z,0.10
2022-12-04T03:17:17.366Z,0.10
2022-12-04T03:19:55.700Z,0.10
2022-12-04T03:22:30.685Z,0.10
2022-12-04T03:25:05.841Z,0.20
2022-12-04T03:27:47.919Z,0.10
2022-12-04T03:30:23.421Z,0.20
2022-12-04T03:33:04.095Z,0.20
2022-12-04T03:35:43.822Z,0.10
2022-12-04T03:38:22.178Z,0.20
2022-12-04T03:41:01.064Z,0.20
2022-12-04T03:43:39.146Z,0.20
2022-12-04T03:46:19.867Z,0.20
2022-12-04T03:49:00.920Z,0.20
2022-12-04T03:51:39.876Z,0.20
2022-12-04T03:54:17.468Z,0.20
2022-12-04T03:56:54.247Z,0.20
2022-12-04T03:59:31.572Z,0.20
2022-12-04T04:02:06.877Z,0.20
2022-12-04T04:04:44.085Z,0.20
2022-12-04T04:07:22.693Z,0.20
2022-12-04T04:10:00.664Z,0.20
2022-12-04T04:12:39.595Z,0.20
2022-12-04T04:15:34.320Z,0.30
2022-12-04T04:18:28.218Z,0.30
2022-12-04T04:21:35.740Z,0.30
2022-12-04T04:24:27.005Z,0.30
2022-12-04T04:27:00.864Z,0.30
2022-12-04T04:29:34.158Z,0.30
2022-12-04T04:32:13.482Z,0.30
2022-12-04T04:34:55.906Z,0.30
2022-12-04T04:37:38.119Z,0.30
2022-12-04T04:40:15.329Z,0.30
2022-12-04T04:42:56.864Z,0.20
2022-12-04T04:45:35.990Z,0.20
2022-12-04T04:48:13.432Z,0.20
2022-12-04T04:50:47.530Z,0.20
2022-12-04T04:53:26.876Z,0.20
2022-12-04T04:56:00.631Z,0.20
2022-12-04T04:58:34.269Z,0.20
2022-12-04T05:01:11.004Z,0.20
2022-12-04T05:03:44.962Z,0.20
2022-12-04T05:06:18.251Z,0.20
2022-12-04T05:08:53.345Z,0.10
2022-12-04T05:11:26.727Z,0.10
2022-12-04T05:14:00.410Z,0.10
2022-12-04T05:16:33.862Z,0.10
2022-12-04T05:19:24.976Z,0.10
2022-12-04T05:21:58.616Z,0.10
2022-12-04T05:24:33.235Z,0.10
2022-12-04T05:27:06.781Z,0.00
2022-12-04T05:29:40.034Z,0.00
2022-12-04T05:32:13.765Z,0.00
2022-12-04T05:34:48.787Z,-0.10
2022-12-04T05:37:22.547Z,-0.10
2022-12-04T05:39:57.355Z,-0.10
2022-12-04T05:42:31.239Z,-0.10
2022-12-04T05:45:04.795Z,-0.10
2022-12-04T05:47:40.321Z,-0.20
2022-12-04T05:50:14.816Z,-0.20
2022-12-04T05:52:48.057Z,-0.20
2022-12-04T05:55:22.696Z,-0.20
2022-12-04T05:57:55.947Z,-0.20
2022-12-04T06:00:30.931Z,-0.20
2022-12-04T06:03:04.243Z,-0.20
2022-12-04T06:05:37.599Z,-0.20
2022-12-04T06:08:10.984Z,-0.30
2022-12-04T06:10:46.004Z,-0.30
2022-12-04T06:13:19.249Z,-0.30
2022-12-04T06:15:52.702Z,-0.20
2022-12-04T06:18:26.126Z,-0.20
2022-12-04T06:20:59.760Z,-0.20
2022-12-04T06:23:33.289Z,-0.20
2022-12-04T06:26:10.094Z,-0.30
2022-12-04T06:28:43.775Z,-0.30
2022-12-04T06:31:19.254Z,-0.30
2022-12-04T06:33:53.919Z,-0.30
2022-12-04T06:36:27.383Z,-0.30
2022-12-04T06:39:00.668Z,-0.20
2022-12-04T06:41:36.403Z,-0.20
2022-12-04T06:44:12.248Z,-0.20
2022-12-04T06:46:47.319Z,-0.20
2022-12-04T06:49:22.968Z,-0.20
2022-12-04T06:51:56.980Z,-0.20
2022-12-04T06:54:30.319Z,-0.10
2022-12-04T06:57:05.143Z,-0.10
2022-12-04T06:59:38.797Z,-0.10
2022-12-04T07:02:12.397Z,-0.10
2022-12-04T07:04:45.926Z,0.00
2022-12-04T07:07:19.231Z,0.00
2022-12-04T07:09:52.702Z,0.10
2022-12-04T07:12:30.001Z,0.10
2022-12-04T07:15:03.289Z,0.20
2022-12-04T07:17:36.709Z,0.20
2022-12-04T07:20:11.005Z,0.20
2022-12-04T07:22:44.268Z,0.30
2022-12-04T07:25:18.099Z,0.30
2022-12-04T07:27:52.756Z,0.40
2022-12-04T07:30:26.030Z,0.40
2022-12-04T07:32:59.566Z,0.50
2022-12-04T07:35:32.895Z,0.50
2022-12-04T07:38:06.348Z,0.60
2022-12-04T07:40:39.782Z,0.70
2022-12-04T07:43:14.411Z,0.70
2022-12-04T07:45:48.233Z,0.80
2022-12-04T07:48:21.868Z,0.90
2022-12-04T07:51:04.045Z,1.00
2022-12-04T07:53:37.848Z,1.10
2022-12-04T07:56:12.474Z,1.20
2022-12-04T07:58:48.161Z,1.20
2022-12-04T08:01:23.809Z,1.40
2022-12-04T08:03:58.923Z,1.40
2022-12-04T08:06:34.855Z,1.60
2022-12-04T08:09:10.283Z,1.60
2022-12-04T08:11:43.919Z,1.70
2022-12-04T08:14:18.582Z,1.70
2022-12-04T08:16:52.961Z,1.80
2022-12-04T08:19:26.727Z,1.90
2022-12-04T08:22:00.056Z,1.90
2022-12-04T08:24:33.539Z,2.00
2022-12-04T08:27:06.853Z,2.10
2022-12-04T08:29:41.515Z,2.20
2022-12-04T08:32:15.131Z,2.40
2022-12-04T08:34:54.012Z,2.50
2022-12-04T08:37:28.938Z,2.70
2022-12-04T08:40:02.708Z,2.80
2022-12-04T08:42:36.318Z,3.00
2022-12-04T08:45:12.521Z,3.20
2022-12-04T08:47:52.070Z,3.40
2022-12-04T08:50:25.972Z,3.50
2022-12-04T08:53:00.839Z,3.70
2022-12-04T08:55:36.115Z,3.80
2022-12-04T08:58:09.783Z,3.90
2022-12-04T09:00:44.901Z,3.90
2022-12-04T09:03:21.012Z,4.00
2022-12-04T09:06:00.486Z,4.10
2022-12-04T09:08:34.954Z,4.20
2022-12-04T09:11:11.070Z,4.30
2022-12-04T09:13:45.638Z,4.40
2022-12-04T09:16:22.803Z,4.50
2022-12-04T09:18:57.521Z,4.70
2022-12-04T09:21:31.161Z,4.80
2022-12-04T09:24:04.836Z,5.00
2022-12-04T09:26:38.426Z,5.30
2022-12-04T09:29:12.683Z,5.50
2022-12-04T09:31:47.989Z,5.60
2022-12-04T09:34:24.222Z,5.70
2022-12-04T09:36:58.569Z,5.90
2022-12-04T09:39:32.778Z,6.00
2022-12-04T09:42:33.654Z,6.10
2022-12-04T09:45:15.301Z,6.00
2022-12-04T09:47:53.974Z,6.00
2022-12-04T09:50:34.526Z,5.90
2022-12-04T09:53:13.832Z,5.90
2022-12-04T09:55:57.733Z,5.80
2022-12-04T09:58:40.366Z,5.80
2022-12-04T10:01:19.985Z,5.80
2022-12-04T10:04:01.187Z,5.80
2022-12-04T10:06:46.002Z,5.80
2022-12-04T10:09:26.300Z,5.80
2022-12-04T10:12:14.113Z,5.80
2022-12-04T10:15:04.892Z,5.70
2022-12-04T10:17:49.112Z,5.80
2022-12-04T10:20:46.679Z,5.80
2022-12-04T10:23:35.894Z,5.90
2022-12-04T10:26:16.370Z,6.00
2022-12-04T10:28:55.749Z,6.10
2022-12-04T10:31:32.910Z,6.20
2022-12-04T10:34:16.372Z,6.30
2022-12-04T10:36:55.751Z,6.30
2022-12-04T10:39:35.650Z,6.40
2022-12-04T10:42:18.210Z,6.40
2022-12-04T10:44:52.330Z,6.50
2022-12-04T10:47:26.878Z,6.50
2022-12-04T10:50:03.071Z,6.60
2022-12-04T10:52:38.277Z,6.60
2022-12-04T10:55:12.261Z,6.70
2022-12-04T10:57:47.782Z,6.80
2022-12-04T11:00:31.408Z,6.80
2022-12-04T11:03:23.221Z,7.00
2022-12-04T11:05:58.824Z,7.10
2022-12-04T11:08:38.812Z,7.20
2022-12-04T11:11:15.241Z,7.30
2022-12-04T11:13:48.934Z,7.30
2022-12-04T11:16:36.204Z,7.50
2022-12-04T11:19:22.267Z,7.50
2022-12-04T11:21:57.933Z,7.70
2022-12-04T11:24:35.669Z,7.80
2022-12-04T11:27:17.746Z,7.90
2022-12-04T11:29:52.169Z,8.10
2022-12-04T11:32:27.989Z,8.20
2022-12-04T11:35:07.107Z,8.40
2022-12-04T11:37:45.289Z,8.60
2022-12-04T11:40:21.386Z,8.80
2022-12-04T11:43:06.243Z,9.00
2022-12-04T11:45:39.807Z,9.30
2022-12-04T11:48:18.347Z,9.50
2022-12-04T11:50:58.328Z,9.70
2022-12-04T11:53:43.267Z,9.90
2022-12-04T11:56:25.735Z,10.10
2022-12-04T11:59:13.206Z,10.50
2022-12-04T12:01:57.911Z,10.80
2022-12-04T12:05:04.079Z,11.20
2022-12-04T12:07:44.617Z,11.50
2022-12-04T12:10:24.468Z,11.80
2022-12-04T12:13:08.338Z,12.00
2022-12-04T12:15:49.436Z,12.20
2022-12-04T12:18:37.069Z,12.20
2022-12-04T12:21:14.321Z,12.30
2022-12-04T12:23:57.019Z,12.40
2022-12-04T12:26:42.085Z,12.50
2022-12-04T12:29:28.537Z,12.40
2022-12-04T12:32:14.736Z,12.50
2022-12-04T12:34:49.143Z,12.70
2022-12-04T12:37:27.815Z,12.90
2022-12-04T12:40:06.118Z,13.10
2022-12-04T12:42:45.985Z,13.10
2022-12-04T12:45:27.950Z,13.20
2022-12-04T12:48:11.068Z,13.30
2022-12-04T12:50:58.174Z,13.30
2022-12-04T12:53:48.951Z,13.20
2022-12-04T12:56:32.289Z,13.30
2022-12-04T12:59:11.741Z,13.30
2022-12-04T13:01:55.940Z,13.10
2022-12-04T13:04:36.188Z,13.00
2022-12-04T13:07:26.216Z,12.80
2022-12-04T13:10:04.675Z,12.50
2022-12-04T13:12:45.833Z,12.30
2022-12-04T13:15:22.533Z,12.10
2022-12-04T13:17:58.197Z,11.80
2022-12-04T13:20:37.979Z,11.60
2022-12-04T13:23:21.575Z,11.40
2022-12-04T13:26:03.986Z,11.20
2022-12-04T13:28:48.568Z,11.00
2022-12-04T13:31:33.092Z,10.80
2022-12-04T13:34:32.958Z,10.60
2022-12-04T13:37:26.000Z,10.30
2022-12-04T13:40:31.591Z,10.20
2022-12-04T13:43:34.761Z,10.00
2022-12-04T13:46:09.200Z,9.80
2022-12-04T13:48:44.034Z,9.70
2022-12-04T13:51:34.986Z,9.60
2022-12-04T13:54:29.853Z,9.40
2022-12-04T13:57:21.057Z,9.20
2022-12-04T14:00:05.274Z,9.00
2022-12-04T14:02:52.847Z,8.70
2022-12-04T14:05:32.506Z,8.50
2022-12-04T14:08:09.292Z,8.30
2022-12-04T14:10:42.856Z,8.10
2022-12-04T14:13:23.243Z,7.90
2022-12-04T14:16:05.764Z,7.50
2022-12-04T14:18:39.247Z,7.20
2022-12-04T14:21:12.783Z,6.90
2022-12-04T14:23:48.010Z,6.70
2022-12-04T14:26:49.065Z,6.60
2022-12-04T14:29:47.724Z,6.50
2022-12-04T14:32:25.530Z,6.30
2022-12-04T14:34:59.756Z,6.20
2022-12-04T14:37:37.091Z,6.10
2022-12-04T14:40:21.929Z,5.90
2022-12-04T14:42:55.910Z,5.70
2022-12-04T14:45:38.814Z,5.50
2022-12-04T14:48:34.629Z,5.30
2022-12-04T14:51:15.828Z,5.10
2022-12-04T14:53:52.222Z,5.00
2022-12-04T14:56:41.977Z,4.80
2022-12-04T14:59:18.865Z,4.80
2022-12-04T15:01:56.815Z,4.70
2022-12-04T15:04:33.260Z,4.50
2022-12-04T15:07:07.674Z,4.40
2022-12-04T15:10:08.709Z,4.20
2022-12-04T15:12:48.192Z,4.10
2022-12-04T15:15:25.583Z,4.00
2022-12-04T15:18:00.542Z,3.80
2022-12-04T15:20:39.455Z,3.60
2022-12-04T15:23:16.727Z,3.60
2022-12-04T15:25:53.073Z,3.50
2022-12-04T15:28:30.833Z,3.30
2022-12-04T15:31:07.488Z,3.20
2022-12-04T15:33:42.427Z,3.30
2022-12-04T15:36:19.543Z,3.10
2022-12-04T15:38:54.681Z,3.00
2022-12-04T15:41:32.214Z,3.00
2022-12-04T15:44:28.706Z,2.90
2022-12-04T15:47:04.261Z,2.90
2022-12-04T15:49:37.914Z,2.80
2022-12-04T15:52:16.293Z,2.80
2022-12-04T15:54:56.904Z,2.80
2022-12-04T15:57:33.279Z,2.70
2022-12-04T16:00:23.630Z,2.70
2022-12-04T16:02:58.802Z,2.60
2022-12-04T16:05:36.569Z,2.50
2022-12-04T16:08:24.719Z,2.50
2022-12-04T16:11:00.156Z,2.40
2022-12-04T16:13:35.378Z,2.30
2022-12-04T16:16:15.301Z,2.30
2022-12-04T16:18:49.001Z,2.20
2022-12-04T16:21:32.223Z,2.20
2022-12-04T16:24:07.332Z,2.10
2022-12-04T16:26:40.927Z,2.00
2022-12-04T16:29:14.297Z,1.90
2022-12-04T16:31:49.460Z,1.80
2022-12-04T16:34:22.938Z,1.80
2022-12-04T16:36:56.549Z,1.70
2022-12-04T16:39:29.805Z,1.70
2022-12-04T16:42:03.331Z,1.60
2022-12-04T16:44:39.703Z,1.60
2022-12-04T16:47:15.514Z,1.50
2022-12-04T16:49:51.026Z,1.50
2022-12-04T16:52:24.285Z,1.40
2022-12-04T16:55:03.111Z,1.40
2022-12-04T16:57:38.068Z,1.40
2022-12-04T17:00:15.266Z,1.30
2022-12-04T17:02:50.067Z,1.30
2022-12-04T17:05:25.183Z,1.30
2022-12-04T17:07:58.535Z,1.20
2022-12-04T17:10:31.813Z,1.20
2022-12-04T17:13:05.503Z,1.10
2022-12-04T17:15:38.819Z,1.10
2022-12-04T17:18:19.219Z,1.10
2022-12-04T17:20:54.490Z,1.00
2022-12-04T17:23:27.800Z,1.00
2022-12-04T17:26:04.969Z,1.00
2022-12-04T17:28:38.324Z,0.90
2022-12-04T17:31:17.143Z,0.90
2022-12-04T17:33:52.512Z,0.80
2022-12-04T17:36:27.678Z,0.80
2022-12-04T17:39:02.799Z,0.80
2022-12-04T17:41:36.475Z,0.70
2022-12-04T17:44:09.739Z,0.70
2022-12-04T17:46:43.519Z,0.70
2022-12-04T17:49:18.194Z,0.70
2022-12-04T17:51:51.634Z,0.60
2022-12-04T17:54:24.990Z,0.60
2022-12-04T17:56:58.663Z,0.60
2022-12-04T17:59:32.005Z,0.60
2022-12-04T18:02:05.703Z,0.50
2022-12-04T18:04:40.413Z,0.50
2022-12-04T18:07:13.908Z,0.50
2022-12-04T18:09:47.223Z,0.50
2022-12-04T18:12:21.058Z,0.50
2022-12-04T18:14:54.774Z,0.50
2022-12-04T18:17:28.270Z,0.40
2022-12-04T18:20:05.356Z,0.40
2022-12-04T18:22:39.274Z,0.40
2022-12-04T18:25:12.832Z,0.40
2022-12-04T18:27:46.165Z,0.40
2022-12-04T18:30:19.856Z,0.40
2022-12-04T18:32:55.577Z,0.40
2022-12-04T18:35:30.255Z,0.40
2022-12-04T18:38:03.700Z,0.40
2022-12-04T18:40:37.264Z,0.40
2022-12-04T18:43:15.436Z,0.40
2022-12-04T18:45:49.169Z,0.40
2022-12-04T18:48:22.719Z,0.40
2022-12-04T18:50:57.885Z,0.40
2022-12-04T18:53:31.431Z,0.40
2022-12-04T18:56:05.082Z,0.40
2022-12-04T18:58:38.811Z,0.40
2022-12-04T19:01:14.902Z,0.50
2022-12-04T19:03:49.218Z,0.50
2022-12-04T19:06:28.516Z,0.50
2022-12-04T19:09:04.556Z,0.50
2022-12-04T19:11:38.296Z,0.50
2022-12-04T19:14:22.258Z,0.50
2022-12-04T19:16:56.614Z,0.50
2022-12-04T19:19:31.768Z,0.50
2022-12-04T19:22:08.910Z,0.50
2022-12-04T19:24:42.753Z,0.60
2022-12-04T19:27:16.048Z,0.60
2022-12-04T19:29:49.731Z,0.60
2022-12-04T19:32:23.363Z,0.60
2022-12-04T19:34:56.746Z,0.60
2022-12-04T19:37:31.683Z,0.60
2022-12-04T19:40:05.642Z,0.60
2022-12-04T19:42:39.258Z,0.60
2022-12-04T19:45:12.674Z,0.70
2022-12-04T19:47:46.247Z,0.70
2022-12-04T19:50:19.601Z,0.70
2022-12-04T19:52:54.941Z,0.70
2022-12-04T19:55:28.252Z,0.70
2022-12-04T19:58:02.414Z,0.60
2022-12-04T20:00:35.689Z,0.60
2022-12-04T20:03:09.389Z,0.60
2022-12-04T20:05:42.916Z,0.60
2022-12-04T20:08:17.679Z,0.60
2022-12-04T20:10:51.121Z,0.60
2022-12-04T20:13:24.843Z,0.60
2022-12-04T20:16:02.711Z,0.60
2022-12-04T20:18:37.913Z,0.60
2022-12-04T20:21:13.033Z,0.60
2022-12-04T20:23:50.180Z,0.60
2022-12-04T20:26:25.890Z,0.60
2022-12-04T20:29:00.694Z,0.60
2022-12-04T20:31:36.051Z,0.60
2022-12-04T20:34:13.270Z,0.60
2022-12-04T20:36:48.536Z,0.60
2022-12-04T20:39:23.252Z,0.60
2022-12-04T20:41:56.785Z,0.60
2022-12-04T20:44:30.227Z,0.60
2022-12-04T20:47:03.496Z,0.50
2022-12-04T20:49:37.033Z,0.50
2022-12-04T20:52:11.409Z,0.50
2022-12-04T20:54:46.048Z,0.50
2022-12-04T20:57:19.660Z,0.50
2022-12-04T20:59:55.061Z,0.50
2022-12-04T21:02:29.483Z,0.50
2022-12-04T21:05:03.160Z,0.50
2022-12-04T21:07:36.518Z,0.50
2022-12-04T21:10:12.484Z,0.50
2022-12-04T21:13:03.881Z,0.50
2022-12-04T21:15:51.307Z,0.40
2022-12-04T21:18:25.088Z,0.40
2022-12-04T21:20:58.586Z,0.40
2022-12-04T21:23:31.919Z,0.30
2022-12-04T21:26:07.007Z,0.40
2022-12-04T21:28:40.279Z,0.30
2022-12-04T21:31:14.079Z,0.30
2022-12-04T21:33:47.552Z,0.30
2022-12-04T21:36:20.834Z,0.30
2022-12-04T21:38:54.288Z,0.30
2022-12-04T21:41:52.033Z,0.30
2022-12-04T21:44:25.876Z,0.30
2022-12-04T21:46:59.478Z,0.30
2022-12-04T21:49:32.952Z,0.30
2022-12-04T21:52:06.463Z,0.30
2022-12-04T21:54:40.239Z,0.20
2022-12-04T21:57:14.965Z,0.20
2022-12-04T21:59:48.588Z,0.20
2022-12-04T22:02:22.261Z,0.20
2022-12-04T22:04:56.748Z,0.20
2022-12-04T22:07:30.060Z,0.20
2022-12-04T22:10:10.056Z,0.20
2022-12-04T22:12:50.291Z,0.20
2022-12-04T22:15:24.120Z,0.20
2022-12-04T22:17:57.450Z,0.20
2022-12-04T22:20:30.754Z,0.20
2022-12-04T22:23:04.250Z,0.10
2022-12-04T22:25:38.106Z,0.10
2022-12-04T22:28:12.902Z,0.10
2022-12-04T22:30:46.219Z,0.10
2022-12-04T22:33:19.569Z,0.00
2022-12-04T22:35:52.872Z,0.00
2022-12-04T22:38:26.215Z,0.00
2022-12-04T22:41:01.214Z,0.00
2022-12-04T22:43:40.715Z,0.00
2022-12-04T22:46:15.196Z,0.00
2022-12-04T22:48:48.753Z,0.00
2022-12-04T22:51:22.965Z,0.00
2022-12-04T22:53:58.583Z,0.00
2022-12-04T22:56:32.935Z,0.00
2022-12-04T22:59:07.611Z,0.10
2022-12-04T23:01:40.897Z,0.10
2022-12-04T23:04:14.256Z,0.10
2022-12-04T23:06:47.525Z,0.10
2022-12-04T23:09:21.307Z,0.10
2022-12-04T23:11:56.152Z,0.10
2022-12-04T23:14:30.924Z,0.20
2022-12-04T23:17:04.663Z,0.20
2022-12-04T23:19:38.223Z,0.20
2022-12-04T23:22:11.839Z,0.20
2022-12-04T23:24:45.112Z,0.20
2022-12-04T23:27:18.370Z,0.30
2022-12-04T23:29:54.336Z,0.30
2022-12-04T23:32:27.618Z,0.30
2022-12-04T23:35:00.891Z,0.40
2022-12-04T23:37:34.331Z,0.40
2022-12-04T23:40:09.064Z,0.40
2022-12-04T23:42:42.322Z,0.40
2022-12-04T23:45:17.342Z,0.40
2022-12-04T23:47:50.657Z,0.40
2022-12-04T23:50:24.126Z,0.40
2022-12-04T23:52:57.615Z,0.50
2022-12-04T23:55:34.536Z,0.50
2022-12-04T23:58:08.125Z,0.50
